Mr. Cass — WDB5593 — position and weather

sailwx.info

Track history (hours):
 
Tides and Currents Weather Stations Pressure Air Temp Water Temp Dewpoint Dewpoint Depression Visibility Wind Speed Wind Dir Waves Ship Positions

Mr. Cass

Owner: Cass Marine Towing LLC, Marrero, LA. More information available from US FCC via Universal Licensing System and Coast Guard Vessel Documentation Center.

Last reported at 2017-Jan-03 01:21 UTC. Time now 2017-Jan-20 01:43 UTC.
Position N 29°54' W 090°05'.
Warning: this ship's position is 17 days out of date.

Length 17 m; draft 3.5 m.

Type: Towing. MMSI: 366911310.

Date/timePositionNaut miles runAvg speedWind from/ knotsBaromVisibWave heightAir tempDewpointWater temp
2017-Jan-03 01:21N 29°54' W 090°05'0 0.0
2017-Jan-01 22:31N 29°54' W 090°05'4 0.1
2016-Dec-31 15:33N 29°55' W 090°08'3 0.1
2016-Dec-30 10:13N 29°56' W 090°12'0 0.0
2016-Dec-30 09:29N 29°56' W 090°12'0 0.0
2016-Dec-28 18:33N 29°55' W 090°12'3 3.1
2016-Dec-28 17:32N 29°58' W 090°14'2 0.1
2016-Dec-27 21:22N 29°58' W 090°16'4 4.1
2016-Dec-27 20:31N 29°56' W 090°13'4 4.1
2016-Dec-27 19:34N 29°57' W 090°09'5 0.3
2016-Dec-27 03:28N 29°55' W 090°04'0 0.0
2016-Dec-27 02:33N 29°55' W 090°04'3 2.4
2016-Dec-27 01:20N 29°54' W 090°07'4 4.9
2016-Dec-27 00:33N 29°56' W 090°11'5 1.5
2016-Dec-26 21:13N 29°58' W 090°16'3 4.2
2016-Dec-26 20:33N 29°57' W 090°13'2 1.2
2016-Dec-26 19:12N 29°56' W 090°12'1 1.5
2016-Dec-26 18:33N 29°56' W 090°11'2 2.5
2016-Dec-26 17:34N 29°56' W 090°08'4 3.3
2016-Dec-26 16:23N 29°56' W 090°04'3 0.7
2016-Dec-26 12:27N 29°58' W 090°02'1 0.7
2016-Dec-26 11:08N 29°59' W 090°01'  
Track history (hours):
 
Tides and Currents Weather Stations Pressure Air Temp Water Temp Dewpoint Dewpoint Depression Visibility Wind Speed Wind Dir Waves Ship Positions

Mr. Cass

Owner: Cass Marine Towing LLC, Marrero, LA. More information available from US FCC via Universal Licensing System and Coast Guard Vessel Documentation Center.

Last reported at 2017-Jan-03 01:21 UTC. Time now 2017-Jan-20 01:43 UTC.
Position N 29°54' W 090°05'.
Warning: this ship's position is 17 days out of date.

Length 17 m; draft 3.5 m.

Type: Towing. MMSI: 366911310.

Date/timePositionNaut miles runAvg speedWind from/ knotsBaromVisibWave heightAir tempDewpointWater temp
2017-Jan-03 01:21N 29°54' W 090°05'0 0.0
2017-Jan-01 22:31N 29°54' W 090°05'4 0.1
2016-Dec-31 15:33N 29°55' W 090°08'3 0.1
2016-Dec-30 10:13N 29°56' W 090°12'0 0.0
2016-Dec-30 09:29N 29°56' W 090°12'0 0.0
2016-Dec-28 18:33N 29°55' W 090°12'3 3.1
2016-Dec-28 17:32N 29°58' W 090°14'2 0.1
2016-Dec-27 21:22N 29°58' W 090°16'4 4.1
2016-Dec-27 20:31N 29°56' W 090°13'4 4.1
2016-Dec-27 19:34N 29°57' W 090°09'5 0.3
2016-Dec-27 03:28N 29°55' W 090°04'0 0.0
2016-Dec-27 02:33N 29°55' W 090°04'3 2.4
2016-Dec-27 01:20N 29°54' W 090°07'4 4.9
2016-Dec-27 00:33N 29°56' W 090°11'5 1.5
2016-Dec-26 21:13N 29°58' W 090°16'3 4.2
2016-Dec-26 20:33N 29°57' W 090°13'2 1.2
2016-Dec-26 19:12N 29°56' W 090°12'1 1.5
2016-Dec-26 18:33N 29°56' W 090°11'2 2.5
2016-Dec-26 17:34N 29°56' W 090°08'4 3.3
2016-Dec-26 16:23N 29°56' W 090°04'3 0.7
2016-Dec-26 12:27N 29°58' W 090°02'1 0.7
2016-Dec-26 11:08N 29°59' W 090°01'  

Dump ship's entire track history